createdAt,value
2023-03-31T00:00:02.615Z,0.00
2023-03-31T00:01:02.799Z,0.00
2023-03-31T00:02:03.006Z,0.00
2023-03-31T00:03:03.349Z,0.00
2023-03-31T00:04:03.703Z,0.00
2023-03-31T00:05:04.051Z,0.00
2023-03-31T00:06:04.363Z,0.00
2023-03-31T00:07:04.290Z,0.00
2023-03-31T00:08:04.520Z,0.00
2023-03-31T00:09:04.715Z,0.00
2023-03-31T00:10:17.310Z,0.00
2023-03-31T00:11:06.156Z,0.00
2023-03-31T00:12:05.472Z,0.00
2023-03-31T00:13:05.651Z,0.00
2023-03-31T00:14:05.847Z,0.00
2023-03-31T00:15:06.016Z,0.00
2023-03-31T00:16:06.596Z,0.00
2023-03-31T00:17:06.554Z,0.00
2023-03-31T00:18:06.765Z,0.00
2023-03-31T00:19:07.017Z,0.00
2023-03-31T00:20:07.318Z,0.00
2023-03-31T00:21:07.497Z,0.00
2023-03-31T00:22:07.806Z,0.00
2023-03-31T00:23:07.981Z,0.00
2023-03-31T00:24:08.297Z,0.00
2023-03-31T00:25:08.489Z,0.00
2023-03-31T00:26:08.754Z,0.00
2023-03-31T00:27:08.897Z,0.00
2023-03-31T00:28:09.096Z,0.00
2023-03-31T00:29:09.275Z,0.00
2023-03-31T00:30:09.453Z,0.00
2023-03-31T00:31:09.735Z,0.00
2023-03-31T00:32:10.070Z,0.00
2023-03-31T00:33:10.251Z,0.00
2023-03-31T00:34:10.574Z,0.00
2023-03-31T00:35:10.747Z,0.00
2023-03-31T00:36:11.072Z,0.00
2023-03-31T00:37:11.244Z,0.00
2023-03-31T00:38:11.427Z,0.00
2023-03-31T00:39:11.602Z,0.00
2023-03-31T00:40:11.901Z,0.00
2023-03-31T00:41:12.069Z,0.00
2023-03-31T00:42:12.276Z,0.00
2023-03-31T00:43:12.452Z,0.00
2023-03-31T00:44:12.736Z,0.00
2023-03-31T00:45:12.910Z,0.00
2023-03-31T00:46:13.234Z,0.00
2023-03-31T00:47:13.390Z,0.00
2023-03-31T00:48:13.639Z,0.00
2023-03-31T00:49:13.864Z,0.00
2023-03-31T00:50:14.042Z,0.00
2023-03-31T00:51:14.214Z,0.00
2023-03-31T00:52:14.536Z,0.00
2023-03-31T00:53:14.719Z,0.00
2023-03-31T00:54:15.009Z,0.00
2023-03-31T00:55:15.294Z,0.00
2023-03-31T00:56:15.615Z,0.00
2023-03-31T00:57:15.885Z,0.00
2023-03-31T00:58:16.054Z,0.00
2023-03-31T00:59:16.255Z,0.00
2023-03-31T01:00:16.473Z,0.00
2023-03-31T01:01:16.662Z,0.00
2023-03-31T01:02:16.972Z,0.00
2023-03-31T01:03:17.173Z,0.00
2023-03-31T01:04:17.464Z,0.00
2023-03-31T01:05:17.639Z,0.00
2023-03-31T01:06:17.952Z,0.00
2023-03-31T01:07:18.167Z,0.00
2023-03-31T01:08:18.386Z,0.00
2023-03-31T01:09:18.577Z,0.00
2023-03-31T01:10:18.770Z,0.00
2023-03-31T01:11:18.954Z,0.00
2023-03-31T01:12:19.272Z,0.00
2023-03-31T01:13:19.450Z,0.00
2023-03-31T01:14:19.753Z,0.00
2023-03-31T01:15:19.942Z,0.00
2023-03-31T01:16:20.290Z,0.00
2023-03-31T01:17:20.619Z,0.00
2023-03-31T01:18:20.741Z,0.00
2023-03-31T01:19:20.933Z,0.00
2023-03-31T01:20:21.252Z,0.00
2023-03-31T01:21:21.407Z,0.00
2023-03-31T01:22:21.729Z,0.00
2023-03-31T01:23:21.938Z,0.00
2023-03-31T01:24:22.209Z,0.00
2023-03-31T01:25:22.395Z,0.00
2023-03-31T01:26:22.600Z,0.00
2023-03-31T01:27:22.813Z,0.00
2023-03-31T01:28:23.008Z,0.00
2023-03-31T01:29:23.201Z,0.00
2023-03-31T01:30:23.505Z,0.00
2023-03-31T01:31:23.724Z,0.00
2023-03-31T01:32:24.043Z,0.00
2023-03-31T01:33:24.214Z,0.00
2023-03-31T01:34:24.534Z,0.00
2023-03-31T01:35:24.762Z,0.00
2023-03-31T01:36:25.008Z,0.00
2023-03-31T01:37:25.211Z,0.00
2023-03-31T01:38:25.415Z,0.00
2023-03-31T01:39:25.597Z,0.00
2023-03-31T01:40:25.917Z,0.00
2023-03-31T01:41:26.121Z,0.00
2023-03-31T01:42:26.445Z,0.00
2023-03-31T01:43:26.651Z,0.00
2023-03-31T01:44:26.825Z,0.00
2023-03-31T01:45:27.136Z,0.00
2023-03-31T01:46:27.362Z,0.00
2023-03-31T01:47:27.550Z,0.00
2023-03-31T01:48:27.778Z,0.00
2023-03-31T01:49:27.970Z,0.00
2023-03-31T01:50:28.260Z,0.00
2023-03-31T01:51:28.447Z,0.00
2023-03-31T01:52:28.843Z,0.00
2023-03-31T01:53:28.979Z,0.00
2023-03-31T01:54:29.283Z,0.00
2023-03-31T01:55:29.458Z,0.00
2023-03-31T01:56:32.623Z,0.00
2023-03-31T01:57:30.081Z,0.00
2023-03-31T01:58:30.224Z,0.00
2023-03-31T01:59:30.405Z,0.00
2023-03-31T02:00:30.700Z,0.00
2023-03-31T02:01:31.489Z,0.00
2023-03-31T02:02:31.226Z,0.00
2023-03-31T02:03:31.448Z,0.00
2023-03-31T02:04:31.641Z,0.00
2023-03-31T02:05:31.832Z,0.00
2023-03-31T02:06:32.135Z,0.00
2023-03-31T02:07:32.331Z,0.00
2023-03-31T02:08:32.501Z,0.00
2023-03-31T02:09:32.799Z,0.00
2023-03-31T02:10:33.101Z,0.00
2023-03-31T02:11:33.306Z,0.00
2023-03-31T02:12:33.534Z,0.00
2023-03-31T02:13:33.716Z,0.00
2023-03-31T02:14:34.035Z,0.00
2023-03-31T02:15:34.230Z,0.00
2023-03-31T02:16:34.448Z,0.00
2023-03-31T02:17:34.643Z,0.00
2023-03-31T02:18:34.799Z,0.00
2023-03-31T02:19:35.102Z,0.00
2023-03-31T02:20:35.391Z,0.00
2023-03-31T02:21:35.569Z,0.00
2023-03-31T02:22:35.903Z,0.00
2023-03-31T02:23:36.088Z,0.00
2023-03-31T02:24:36.393Z,0.00
2023-03-31T02:25:36.572Z,0.00
2023-03-31T02:26:36.877Z,0.00
2023-03-31T02:27:37.065Z,0.00
2023-03-31T02:28:37.366Z,0.00
2023-03-31T02:29:37.542Z,0.00
2023-03-31T02:30:37.850Z,0.00
2023-03-31T02:31:38.053Z,0.00
2023-03-31T02:32:38.378Z,0.00
2023-03-31T02:33:38.609Z,0.00
2023-03-31T02:34:38.904Z,0.00
2023-03-31T02:35:39.156Z,0.00
2023-03-31T02:36:39.292Z,0.00
2023-03-31T02:37:39.501Z,0.00
2023-03-31T02:38:39.685Z,0.00
2023-03-31T02:39:39.984Z,0.00
2023-03-31T02:40:40.291Z,0.00
2023-03-31T02:41:40.491Z,0.00
2023-03-31T02:42:40.699Z,0.00
2023-03-31T02:43:40.903Z,0.00
2023-03-31T02:44:41.217Z,0.00
2023-03-31T02:45:42.450Z,0.00
2023-03-31T02:46:41.692Z,0.00
2023-03-31T02:47:41.952Z,0.00
2023-03-31T02:48:42.119Z,0.00
2023-03-31T02:49:42.301Z,0.00
2023-03-31T02:50:42.604Z,0.00
2023-03-31T02:51:42.786Z,0.00
2023-03-31T02:52:43.105Z,0.00
2023-03-31T02:53:43.299Z,0.00
2023-03-31T02:54:43.615Z,0.00
2023-03-31T02:55:43.795Z,0.00
2023-03-31T02:56:44.000Z,0.00
2023-03-31T02:57:44.192Z,0.00
2023-03-31T02:58:44.391Z,0.00
2023-03-31T02:59:44.588Z,0.00
2023-03-31T03:00:44.780Z,0.00
2023-03-31T03:01:45.062Z,0.00
2023-03-31T03:02:45.304Z,0.00
2023-03-31T03:03:45.499Z,0.00
2023-03-31T03:04:45.800Z,0.00
2023-03-31T03:05:46.062Z,0.00
2023-03-31T03:06:46.192Z,0.00
2023-03-31T03:07:46.384Z,0.00
2023-03-31T03:08:46.561Z,0.00
2023-03-31T03:09:46.747Z,0.00
2023-03-31T03:10:47.052Z,0.00
2023-03-31T03:11:47.246Z,0.00
2023-03-31T03:12:47.443Z,0.00
2023-03-31T03:13:47.633Z,0.00
2023-03-31T03:14:47.911Z,0.00
2023-03-31T03:15:48.109Z,0.00
2023-03-31T03:16:48.404Z,0.00
2023-03-31T03:17:48.689Z,0.00
2023-03-31T03:18:48.858Z,0.00
2023-03-31T03:19:49.051Z,0.00
2023-03-31T03:20:49.315Z,0.00
2023-03-31T03:21:49.481Z,0.00
2023-03-31T03:22:49.668Z,0.00
2023-03-31T03:23:49.861Z,0.00
2023-03-31T03:24:50.045Z,0.00
2023-03-31T03:25:50.338Z,0.00
2023-03-31T03:26:50.513Z,0.00
2023-03-31T03:27:50.821Z,0.00
2023-03-31T03:28:51.005Z,0.00
2023-03-31T03:29:51.313Z,0.00
2023-03-31T03:30:51.597Z,0.00
2023-03-31T03:31:51.762Z,0.00
2023-03-31T03:32:51.966Z,0.00
2023-03-31T03:33:52.246Z,0.00
2023-03-31T03:34:52.445Z,0.00
2023-03-31T03:35:52.656Z,0.00
2023-03-31T03:36:52.826Z,0.00
2023-03-31T03:37:53.149Z,0.00
2023-03-31T03:38:53.337Z,0.00
2023-03-31T03:39:53.631Z,0.00
2023-03-31T03:40:53.816Z,0.00
2023-03-31T03:41:54.101Z,0.00
2023-03-31T03:42:54.396Z,0.00
2023-03-31T03:43:54.614Z,0.00
2023-03-31T03:44:54.760Z,0.00
2023-03-31T03:45:55.067Z,0.00
2023-03-31T03:46:55.241Z,0.00
2023-03-31T03:47:55.629Z,0.00
2023-03-31T03:48:55.719Z,0.00
2023-03-31T03:49:56.015Z,0.00
2023-03-31T03:50:56.193Z,0.00
2023-03-31T03:51:56.489Z,0.00
2023-03-31T03:52:56.681Z,0.00
2023-03-31T03:53:56.860Z,0.00
2023-03-31T03:54:57.043Z,0.00
2023-03-31T03:55:57.338Z,0.00
2023-03-31T03:56:57.552Z,0.00
2023-03-31T03:57:57.740Z,0.00
2023-03-31T03:58:57.925Z,0.00
2023-03-31T03:59:58.213Z,0.00
2023-03-31T04:00:58.392Z,0.00
2023-03-31T04:01:58.758Z,0.00
2023-03-31T04:02:58.938Z,0.00
2023-03-31T04:03:59.097Z,0.00
2023-03-31T04:04:59.452Z,0.00
2023-03-31T04:05:59.597Z,0.00
2023-03-31T04:06:59.774Z,0.00
2023-03-31T04:08:00.135Z,0.00
2023-03-31T04:09:00.303Z,0.00
2023-03-31T04:10:00.589Z,0.00
2023-03-31T04:11:00.772Z,0.00
2023-03-31T04:12:00.985Z,0.00
2023-03-31T04:13:01.196Z,0.00
2023-03-31T04:14:01.435Z,0.00
2023-03-31T04:15:01.648Z,0.00
2023-03-31T04:16:01.955Z,0.00
2023-03-31T04:17:02.096Z,0.00
2023-03-31T04:18:02.398Z,0.00
2023-03-31T04:19:02.597Z,0.00
2023-03-31T04:20:02.836Z,0.00
2023-03-31T04:21:03.057Z,0.00
2023-03-31T04:22:03.383Z,0.00
2023-03-31T04:23:03.477Z,0.00
2023-03-31T04:24:03.665Z,0.00
2023-03-31T04:25:03.827Z,0.00
2023-03-31T04:26:04.425Z,0.00
2023-03-31T04:27:04.394Z,0.00
2023-03-31T04:28:04.706Z,0.00
2023-03-31T04:29:04.882Z,0.00
2023-03-31T04:30:05.178Z,0.00
2023-03-31T04:31:05.363Z,0.00
2023-03-31T04:32:05.731Z,0.00
2023-03-31T04:33:06.022Z,0.00
2023-03-31T04:34:06.171Z,0.00
2023-03-31T04:35:06.361Z,0.00
2023-03-31T04:36:06.815Z,0.00
2023-03-31T04:37:06.766Z,5.62
2023-03-31T04:38:07.089Z,5.62
2023-03-31T04:39:07.281Z,5.62
2023-03-31T04:40:07.473Z,5.62
2023-03-31T04:41:07.658Z,5.62
2023-03-31T04:42:07.956Z,5.62
2023-03-31T04:43:08.146Z,5.62
2023-03-31T04:44:08.331Z,11.25
2023-03-31T04:45:08.619Z,11.25
2023-03-31T04:46:09.261Z,11.25
2023-03-31T04:47:09.185Z,11.25
2023-03-31T04:48:09.503Z,11.25
2023-03-31T04:49:09.689Z,16.88
2023-03-31T04:50:12.052Z,16.88
2023-03-31T04:51:10.183Z,16.88
2023-03-31T04:52:10.498Z,22.50
2023-03-31T04:53:10.680Z,22.50
2023-03-31T04:54:10.879Z,22.50
2023-03-31T04:55:11.084Z,28.12
2023-03-31T04:56:11.356Z,28.12
2023-03-31T04:57:11.584Z,33.75
2023-03-31T04:58:11.870Z,33.75
2023-03-31T04:59:12.071Z,39.38
2023-03-31T05:00:12.410Z,39.38
2023-03-31T05:01:12.583Z,39.38
2023-03-31T05:02:12.912Z,45.00
2023-03-31T05:03:13.167Z,45.00
2023-03-31T05:04:13.361Z,50.62
2023-03-31T05:05:13.634Z,50.62
2023-03-31T05:06:13.934Z,50.62
2023-03-31T05:07:14.124Z,50.62
2023-03-31T05:08:14.355Z,56.25
2023-03-31T05:09:14.556Z,56.25
2023-03-31T05:10:14.719Z,56.25
2023-03-31T05:11:14.898Z,56.25
2023-03-31T05:12:15.197Z,61.88
2023-03-31T05:13:15.513Z,61.88
2023-03-31T05:14:15.729Z,61.88
2023-03-31T05:15:15.935Z,67.50
2023-03-31T05:16:16.292Z,67.50
2023-03-31T05:17:16.478Z,73.12
2023-03-31T05:18:18.256Z,78.75
2023-03-31T05:19:16.996Z,84.38
2023-03-31T05:20:17.196Z,90.00
2023-03-31T05:21:17.389Z,95.62
2023-03-31T05:22:17.693Z,101.25
2023-03-31T05:23:17.893Z,106.88
2023-03-31T05:24:18.088Z,112.50
2023-03-31T05:25:18.277Z,123.75
2023-03-31T05:26:18.573Z,129.38
2023-03-31T05:27:18.760Z,135.00
2023-03-31T05:28:19.099Z,140.62
2023-03-31T05:29:19.265Z,140.62
2023-03-31T05:30:19.590Z,146.25
2023-03-31T05:31:19.770Z,157.50
2023-03-31T05:32:20.050Z,163.12
2023-03-31T05:33:20.246Z,174.38
2023-03-31T05:34:20.441Z,180.00
2023-03-31T05:35:20.608Z,196.88
2023-03-31T05:36:20.973Z,196.88
2023-03-31T05:37:21.109Z,225.00
2023-03-31T05:38:21.417Z,326.25
2023-03-31T05:39:21.590Z,275.62
2023-03-31T05:40:21.886Z,315.00
2023-03-31T05:41:22.076Z,292.50
2023-03-31T05:42:22.395Z,303.75
2023-03-31T05:43:22.585Z,309.38
2023-03-31T05:44:22.788Z,303.75
2023-03-31T05:45:22.965Z,326.25
2023-03-31T05:46:23.305Z,343.12
2023-03-31T05:47:23.476Z,354.38
2023-03-31T05:48:23.671Z,331.88
2023-03-31T05:49:23.852Z,320.62
2023-03-31T05:50:24.035Z,275.62
2023-03-31T05:51:24.193Z,202.50
2023-03-31T05:52:24.513Z,196.88
2023-03-31T05:53:24.705Z,196.88
2023-03-31T05:54:24.872Z,213.75
2023-03-31T05:55:25.197Z,230.62
2023-03-31T05:56:25.384Z,213.75
2023-03-31T05:57:25.593Z,219.38
2023-03-31T05:58:25.846Z,230.62
2023-03-31T05:59:26.025Z,230.62
2023-03-31T06:00:26.299Z,196.88
2023-03-31T06:01:26.678Z,174.38
2023-03-31T06:02:27.033Z,174.38
2023-03-31T06:03:27.066Z,157.50
2023-03-31T06:04:27.243Z,146.25
2023-03-31T06:05:27.425Z,140.62
2023-03-31T06:06:27.714Z,146.25
2023-03-31T06:07:27.887Z,151.88
2023-03-31T06:08:28.202Z,157.50
2023-03-31T06:09:28.473Z,163.12
2023-03-31T06:10:28.671Z,174.38
2023-03-31T06:11:28.856Z,185.62
2023-03-31T06:12:29.053Z,208.12
2023-03-31T06:13:29.258Z,236.25
2023-03-31T06:14:29.451Z,309.38
2023-03-31T06:15:29.632Z,348.75
2023-03-31T06:16:29.946Z,371.25
2023-03-31T06:17:30.132Z,399.38
2023-03-31T06:18:30.411Z,495.00
2023-03-31T06:19:30.583Z,540.00
2023-03-31T06:20:30.927Z,495.00
2023-03-31T06:21:31.049Z,585.00
2023-03-31T06:22:31.346Z,472.50
2023-03-31T06:23:31.536Z,461.25
2023-03-31T06:24:31.721Z,658.12
2023-03-31T06:25:43.782Z,405.00
2023-03-31T06:26:33.160Z,405.00
2023-03-31T06:27:32.322Z,348.75
2023-03-31T06:28:32.509Z,315.00
2023-03-31T06:29:32.687Z,303.75
2023-03-31T06:30:32.859Z,264.38
2023-03-31T06:31:33.189Z,360.00
2023-03-31T06:32:33.431Z,444.38
2023-03-31T06:33:33.620Z,585.00
2023-03-31T06:34:33.810Z,556.88
2023-03-31T06:35:34.012Z,618.75
2023-03-31T06:36:34.139Z,748.12
2023-03-31T06:37:34.410Z,731.25
2023-03-31T06:38:34.699Z,697.50
2023-03-31T06:39:34.856Z,669.38
2023-03-31T06:40:35.129Z,601.88
2023-03-31T06:41:35.318Z,596.25
2023-03-31T06:42:35.578Z,697.50
2023-03-31T06:43:35.755Z,720.00
2023-03-31T06:44:35.922Z,736.88
2023-03-31T06:45:36.429Z,748.12
2023-03-31T06:46:36.359Z,748.12
2023-03-31T06:47:36.550Z,770.62
2023-03-31T06:48:36.697Z,776.25
2023-03-31T06:49:36.858Z,776.25
2023-03-31T06:50:37.014Z,781.88
2023-03-31T06:51:37.167Z,781.88
2023-03-31T06:52:37.325Z,590.62
2023-03-31T06:53:37.478Z,528.75
2023-03-31T06:54:37.622Z,590.62
2023-03-31T06:55:37.759Z,601.88
2023-03-31T06:56:37.896Z,652.50
2023-03-31T06:57:38.044Z,821.25
2023-03-31T06:58:38.310Z,877.50
2023-03-31T06:59:38.444Z,1085.62
2023-03-31T07:00:38.593Z,984.38
2023-03-31T07:01:38.773Z,804.38
2023-03-31T07:02:38.955Z,1051.88
2023-03-31T07:03:39.083Z,984.38
2023-03-31T07:04:39.164Z,849.38
2023-03-31T07:05:39.292Z,973.12
2023-03-31T07:06:39.549Z,1080.00
2023-03-31T07:07:39.680Z,888.75
2023-03-31T07:08:39.826Z,630.00
2023-03-31T07:09:39.951Z,714.38
2023-03-31T07:10:40.094Z,838.12
2023-03-31T07:11:40.224Z,945.00
2023-03-31T07:12:40.357Z,1299.38
2023-03-31T07:13:40.599Z,1316.25
2023-03-31T07:14:40.759Z,1462.50
2023-03-31T07:15:40.876Z,1614.38
2023-03-31T07:16:41.190Z,1361.25
2023-03-31T07:17:41.357Z,888.75
2023-03-31T07:18:41.586Z,860.62
2023-03-31T07:19:41.720Z,1057.50
2023-03-31T07:20:41.864Z,1006.88
2023-03-31T07:21:42.019Z,1096.88
2023-03-31T07:22:42.237Z,1310.62
2023-03-31T07:23:42.378Z,1473.75
2023-03-31T07:24:42.507Z,1479.38
2023-03-31T07:25:42.643Z,1473.75
2023-03-31T07:26:42.882Z,1631.25
2023-03-31T07:27:43.040Z,1726.88
2023-03-31T07:28:43.189Z,1524.38
2023-03-31T07:29:43.317Z,1395.00
2023-03-31T07:30:43.574Z,1411.88
2023-03-31T07:31:43.725Z,1608.75
2023-03-31T07:32:43.863Z,1389.38
2023-03-31T07:33:44.010Z,1192.50
2023-03-31T07:34:44.147Z,1063.12
2023-03-31T07:35:44.293Z,1096.88
2023-03-31T07:36:44.428Z,1074.38
2023-03-31T07:37:44.561Z,1231.88
2023-03-31T07:38:44.718Z,1434.38
2023-03-31T07:39:44.865Z,1569.38
2023-03-31T07:40:46.231Z,1040.62
2023-03-31T07:41:45.189Z,1344.38
2023-03-31T07:42:47.841Z,1035.00
2023-03-31T07:43:45.644Z,1321.88
2023-03-31T07:44:45.760Z,1226.25
2023-03-31T07:45:46.056Z,1170.00
2023-03-31T07:46:46.204Z,2227.50
2023-03-31T07:47:46.560Z,1496.25
2023-03-31T07:48:46.534Z,1299.38
2023-03-31T07:49:46.644Z,2452.50
2023-03-31T07:50:46.762Z,1417.50
2023-03-31T07:51:46.897Z,1226.25
2023-03-31T07:52:47.369Z,2396.25
2023-03-31T07:53:47.178Z,2390.62
2023-03-31T07:54:47.295Z,1485.00
2023-03-31T07:55:47.444Z,1901.25
2023-03-31T07:56:47.590Z,1130.62
2023-03-31T07:57:47.820Z,1203.75
2023-03-31T07:58:47.853Z,1023.75
2023-03-31T07:59:47.953Z,1327.50
2023-03-31T08:00:48.086Z,1445.62
2023-03-31T08:01:48.272Z,1383.75
2023-03-31T08:02:48.372Z,1361.25
2023-03-31T08:03:48.567Z,1147.50
2023-03-31T08:04:48.683Z,877.50
2023-03-31T08:05:51.080Z,928.12
2023-03-31T08:06:48.999Z,843.75
2023-03-31T08:07:49.208Z,804.38
2023-03-31T08:08:49.360Z,838.12
2023-03-31T08:09:49.533Z,967.50
2023-03-31T08:10:49.672Z,1141.88
2023-03-31T08:11:49.799Z,1260.00
2023-03-31T08:12:49.936Z,1440.00
2023-03-31T08:13:50.173Z,1569.38
2023-03-31T08:14:50.195Z,1350.00
2023-03-31T08:15:50.369Z,1642.50
2023-03-31T08:16:50.476Z,1648.12
2023-03-31T08:17:50.739Z,1704.38
2023-03-31T08:18:50.896Z,1383.75
2023-03-31T08:19:51.043Z,1310.62
2023-03-31T08:20:51.200Z,1164.38
2023-03-31T08:21:51.366Z,1226.25
2023-03-31T08:22:51.482Z,1400.62
2023-03-31T08:23:51.749Z,1158.75
2023-03-31T08:24:51.904Z,1805.62
2023-03-31T08:25:52.037Z,1648.12
2023-03-31T08:26:52.165Z,1631.25
2023-03-31T08:27:52.288Z,1991.25
2023-03-31T08:28:52.457Z,1850.62
2023-03-31T08:29:52.629Z,1310.62
2023-03-31T08:30:52.777Z,2553.75
2023-03-31T08:31:53.014Z,2458.12
2023-03-31T08:32:53.098Z,2520.00
2023-03-31T08:33:53.201Z,2790.00
2023-03-31T08:34:53.306Z,2604.38
2023-03-31T08:35:53.520Z,2851.88
2023-03-31T08:36:53.624Z,1580.62
2023-03-31T08:37:53.842Z,2806.88
2023-03-31T08:38:53.946Z,1878.75
2023-03-31T08:39:54.071Z,2086.88
2023-03-31T08:40:54.175Z,1192.50
2023-03-31T08:41:54.287Z,1681.88
2023-03-31T08:42:54.399Z,1366.88
2023-03-31T08:43:54.570Z,1428.75
2023-03-31T08:44:54.651Z,945.00
2023-03-31T08:45:56.131Z,956.25
2023-03-31T08:46:54.961Z,849.38
2023-03-31T08:47:55.206Z,888.75
2023-03-31T08:48:55.318Z,1035.00
2023-03-31T08:49:55.439Z,2272.50
2023-03-31T08:50:55.549Z,3369.38
2023-03-31T08:51:55.675Z,2722.50
2023-03-31T08:52:55.780Z,1653.75
2023-03-31T08:53:55.913Z,1440.00
2023-03-31T08:54:56.017Z,1006.88
2023-03-31T08:55:56.232Z,939.38
2023-03-31T08:56:56.384Z,973.12
2023-03-31T08:57:56.471Z,1102.50
2023-03-31T08:58:56.583Z,1226.25
2023-03-31T08:59:56.696Z,1276.88
2023-03-31T09:00:56.849Z,1636.88
2023-03-31T09:01:57.211Z,1276.88
2023-03-31T09:02:57.155Z,1231.88
2023-03-31T09:03:57.381Z,1119.38
2023-03-31T09:04:57.357Z,1074.38
2023-03-31T09:06:00.710Z,1068.75
2023-03-31T09:06:57.747Z,2002.50
2023-03-31T09:07:57.867Z,2109.38
2023-03-31T09:08:58.004Z,1687.50
2023-03-31T09:09:58.116Z,2525.62
2023-03-31T09:10:58.226Z,1710.00
2023-03-31T09:11:58.340Z,4528.12
2023-03-31T09:12:58.460Z,4533.75
2023-03-31T09:13:58.724Z,4258.12
2023-03-31T09:14:58.833Z,4291.88
2023-03-31T09:15:58.917Z,4050.00
2023-03-31T09:16:59.054Z,3948.75
2023-03-31T09:17:59.144Z,2413.12
2023-03-31T09:18:59.303Z,2334.38
2023-03-31T09:19:59.349Z,2266.88
2023-03-31T09:20:59.437Z,2289.38
2023-03-31T09:21:59.535Z,2120.62
2023-03-31T09:22:59.624Z,1625.62
2023-03-31T09:23:59.719Z,1518.75
2023-03-31T09:24:59.816Z,1316.25
2023-03-31T09:25:59.887Z,1164.38
2023-03-31T09:26:59.999Z,1085.62
2023-03-31T09:28:00.134Z,1580.62
2023-03-31T09:29:00.236Z,1698.75
2023-03-31T09:30:00.344Z,1243.12
2023-03-31T09:31:00.465Z,1035.00
2023-03-31T09:32:00.638Z,894.38
2023-03-31T09:33:00.756Z,759.38
2023-03-31T09:34:00.826Z,691.88
2023-03-31T09:35:00.933Z,765.00
2023-03-31T09:36:01.159Z,725.62
2023-03-31T09:37:01.252Z,753.75
2023-03-31T09:38:01.359Z,714.38
2023-03-31T09:39:01.518Z,697.50
2023-03-31T09:40:01.672Z,703.12
2023-03-31T09:41:01.802Z,860.62
2023-03-31T09:42:01.908Z,826.88
2023-03-31T09:43:02.073Z,770.62
2023-03-31T09:44:02.234Z,911.25
2023-03-31T09:45:02.357Z,1057.50
2023-03-31T09:46:09.719Z,1417.50
2023-03-31T09:47:03.819Z,1068.75
2023-03-31T09:48:02.913Z,1468.12
2023-03-31T09:49:02.998Z,1006.88
2023-03-31T09:50:03.116Z,1614.38
2023-03-31T09:51:03.242Z,1209.38
2023-03-31T09:52:03.476Z,1333.12
2023-03-31T09:53:03.585Z,2919.38
2023-03-31T09:54:03.834Z,3476.25
2023-03-31T09:55:03.948Z,2199.38
2023-03-31T09:56:04.385Z,1608.75
2023-03-31T09:57:04.286Z,1305.00
2023-03-31T09:58:04.375Z,1186.88
2023-03-31T09:59:04.549Z,855.00
2023-03-31T10:00:04.649Z,720.00
2023-03-31T10:01:04.993Z,618.75
2023-03-31T10:02:05.058Z,500.62
2023-03-31T10:03:05.068Z,421.88
2023-03-31T10:04:05.240Z,382.50
2023-03-31T10:05:05.352Z,343.12
2023-03-31T10:06:05.473Z,303.75
2023-03-31T10:07:05.613Z,303.75
2023-03-31T10:08:05.767Z,292.50
2023-03-31T10:09:05.882Z,303.75
2023-03-31T10:10:06.013Z,315.00
2023-03-31T10:11:06.310Z,303.75
2023-03-31T10:12:06.370Z,309.38
2023-03-31T10:13:06.513Z,348.75
2023-03-31T10:14:06.813Z,399.38
2023-03-31T10:15:06.947Z,444.38
2023-03-31T10:16:07.263Z,495.00
2023-03-31T10:17:07.244Z,562.50
2023-03-31T10:18:07.430Z,624.38
2023-03-31T10:19:14.638Z,697.50
2023-03-31T10:20:07.763Z,742.50
2023-03-31T10:21:08.150Z,770.62
2023-03-31T10:22:09.802Z,849.38
2023-03-31T10:23:08.964Z,990.00
2023-03-31T10:24:08.464Z,1350.00
2023-03-31T10:25:08.611Z,2351.25
2023-03-31T10:26:08.890Z,2638.12
2023-03-31T10:27:09.038Z,2379.38
2023-03-31T10:28:09.196Z,2272.50
2023-03-31T10:29:09.334Z,1828.12
2023-03-31T10:30:09.492Z,1479.38
2023-03-31T10:31:09.954Z,1361.25
2023-03-31T10:32:09.760Z,1209.38
2023-03-31T10:33:22.100Z,978.75
2023-03-31T10:34:11.138Z,855.00
2023-03-31T10:35:10.270Z,815.62
2023-03-31T10:36:10.462Z,765.00
2023-03-31T10:37:10.557Z,714.38
2023-03-31T10:38:10.855Z,669.38
2023-03-31T10:39:11.005Z,585.00
2023-03-31T10:40:11.162Z,511.88
2023-03-31T10:41:11.322Z,495.00
2023-03-31T10:42:11.608Z,483.75
2023-03-31T10:43:11.743Z,444.38
2023-03-31T10:44:12.370Z,388.12
2023-03-31T10:45:13.658Z,365.62
2023-03-31T10:46:13.417Z,354.38
2023-03-31T10:47:12.537Z,326.25
2023-03-31T10:48:12.699Z,320.62
2023-03-31T10:49:12.838Z,331.88
2023-03-31T10:50:13.023Z,354.38
2023-03-31T10:51:14.807Z,416.25
2023-03-31T10:52:13.421Z,506.25
2023-03-31T10:53:13.577Z,652.50
2023-03-31T10:54:13.726Z,922.50
2023-03-31T10:55:13.875Z,1569.38
2023-03-31T10:56:14.028Z,2171.25
2023-03-31T10:57:14.259Z,1968.75
2023-03-31T10:58:14.392Z,1659.38
2023-03-31T10:59:14.553Z,1333.12
2023-03-31T11:00:14.725Z,1164.38
2023-03-31T11:01:14.904Z,1141.88
2023-03-31T11:02:15.088Z,1260.00
2023-03-31T11:03:15.237Z,1501.88
2023-03-31T11:04:15.396Z,1659.38
2023-03-31T11:05:15.555Z,1800.00
2023-03-31T11:06:15.706Z,1546.88
2023-03-31T11:07:15.853Z,1344.38
2023-03-31T11:08:17.373Z,1254.38
2023-03-31T11:09:16.291Z,1220.62
2023-03-31T11:10:16.437Z,1237.50
2023-03-31T11:11:16.554Z,1175.62
2023-03-31T11:12:16.695Z,1220.62
2023-03-31T11:13:16.828Z,1248.75
2023-03-31T11:14:17.085Z,1271.25
2023-03-31T11:15:17.251Z,1288.12
2023-03-31T11:16:17.508Z,1226.25
2023-03-31T11:17:17.751Z,1158.75
2023-03-31T11:18:17.934Z,1209.38
2023-03-31T11:19:18.061Z,1243.12
2023-03-31T11:20:18.310Z,1119.38
2023-03-31T11:21:18.433Z,916.88
2023-03-31T11:22:18.568Z,798.75
2023-03-31T11:23:18.727Z,765.00
2023-03-31T11:24:18.875Z,832.50
2023-03-31T11:25:19.044Z,866.25
2023-03-31T11:26:19.216Z,928.12
2023-03-31T11:27:19.347Z,922.50
2023-03-31T11:28:19.476Z,900.00
2023-03-31T11:29:19.614Z,933.75
2023-03-31T11:30:19.743Z,978.75
2023-03-31T11:31:19.891Z,973.12
2023-03-31T11:32:20.033Z,956.25
2023-03-31T11:33:20.168Z,911.25
2023-03-31T11:34:20.299Z,888.75
2023-03-31T11:35:20.434Z,855.00
2023-03-31T11:36:20.679Z,821.25
2023-03-31T11:37:20.683Z,810.00
2023-03-31T11:38:22.599Z,793.12
2023-03-31T11:39:21.113Z,804.38
2023-03-31T11:40:21.273Z,810.00
2023-03-31T11:41:21.400Z,821.25
2023-03-31T11:42:21.526Z,843.75
2023-03-31T11:43:21.654Z,843.75
2023-03-31T11:44:21.834Z,860.62
2023-03-31T11:45:21.983Z,888.75
2023-03-31T11:46:22.171Z,883.12
2023-03-31T11:47:22.281Z,843.75
2023-03-31T11:48:22.450Z,776.25
2023-03-31T11:49:22.586Z,720.00
2023-03-31T11:50:22.773Z,663.75
2023-03-31T11:51:22.917Z,596.25
2023-03-31T11:52:23.050Z,517.50
2023-03-31T11:53:23.217Z,450.00
2023-03-31T11:54:23.374Z,365.62
2023-03-31T11:55:23.537Z,331.88
2023-03-31T11:56:23.696Z,315.00
2023-03-31T11:57:23.915Z,253.12
2023-03-31T11:58:24.025Z,180.00
2023-03-31T11:59:24.213Z,174.38
2023-03-31T12:00:24.345Z,236.25
2023-03-31T12:01:24.493Z,320.62
2023-03-31T12:02:24.666Z,399.38
2023-03-31T12:03:24.933Z,495.00
2023-03-31T12:04:24.942Z,601.88
2023-03-31T12:05:25.232Z,714.38
2023-03-31T12:06:25.345Z,826.88
2023-03-31T12:07:25.506Z,984.38
2023-03-31T12:08:25.645Z,1119.38
2023-03-31T12:09:25.787Z,1051.88
2023-03-31T12:10:25.941Z,1057.50
2023-03-31T12:11:26.204Z,1119.38
2023-03-31T12:12:26.343Z,1243.12
2023-03-31T12:13:26.620Z,1338.75
2023-03-31T12:14:26.646Z,1715.62
2023-03-31T12:15:26.783Z,1603.12
2023-03-31T12:16:27.110Z,1608.75
2023-03-31T12:17:27.165Z,1580.62
2023-03-31T12:18:27.257Z,1389.38
2023-03-31T12:19:27.408Z,1164.38
2023-03-31T12:20:27.554Z,1400.62
2023-03-31T12:21:27.687Z,1260.00
2023-03-31T12:22:27.818Z,1119.38
2023-03-31T12:23:28.017Z,1085.62
2023-03-31T12:24:28.106Z,1068.75
2023-03-31T12:25:28.379Z,1147.50
2023-03-31T12:26:28.502Z,945.00
2023-03-31T12:27:28.633Z,781.88
2023-03-31T12:28:28.780Z,708.75
2023-03-31T12:29:28.935Z,652.50
2023-03-31T12:30:29.081Z,613.12
2023-03-31T12:31:29.256Z,545.62
2023-03-31T12:32:29.384Z,444.38
2023-03-31T12:33:29.584Z,393.75
2023-03-31T12:34:29.713Z,382.50
2023-03-31T12:35:29.851Z,371.25
2023-03-31T12:36:30.002Z,337.50
2023-03-31T12:37:30.158Z,303.75
2023-03-31T12:38:30.287Z,286.88
2023-03-31T12:39:30.448Z,258.75
2023-03-31T12:40:30.603Z,202.50
2023-03-31T12:41:30.757Z,163.12
2023-03-31T12:42:30.901Z,157.50
2023-03-31T12:43:31.093Z,157.50